createdAt,value
2018-10-05T00:01:43.285Z,18.07
2018-10-05T00:04:11.965Z,19.02
2018-10-05T00:06:40.657Z,18.27
2018-10-05T00:09:10.760Z,20.85
2018-10-05T00:11:39.485Z,15.98
2018-10-05T00:14:08.149Z,19.80
2018-10-05T00:16:36.941Z,21.85
2018-10-05T00:19:05.781Z,17.45
2018-10-05T00:21:34.920Z,20.77
2018-10-05T00:24:03.621Z,21.48
2018-10-05T00:26:32.360Z,15.32
2018-10-05T00:29:01.012Z,20.30
2018-10-05T00:31:29.660Z,20.20
2018-10-05T00:33:58.675Z,19.10
2018-10-05T00:36:27.204Z,18.27
2018-10-05T00:38:55.864Z,21.02
2018-10-05T00:41:24.588Z,18.95
2018-10-05T00:43:53.472Z,18.37
2018-10-05T00:46:21.996Z,23.42
2018-10-05T00:48:50.655Z,28.65
2018-10-05T00:51:19.336Z,16.40
2018-10-05T00:53:47.875Z,18.05
2018-10-05T00:56:16.428Z,19.02
2018-10-05T00:58:45.708Z,15.38
2018-10-05T01:01:15.232Z,19.45
2018-10-05T01:03:43.768Z,23.38
2018-10-05T01:06:12.636Z,20.08
2018-10-05T01:08:41.576Z,17.77
2018-10-05T01:11:10.096Z,18.57
2018-10-05T01:13:39.004Z,19.00
2018-10-05T01:16:07.564Z,16.32
2018-10-05T01:18:36.120Z,20.12
2018-10-05T01:21:04.836Z,18.82
2018-10-05T01:23:33.364Z,25.48
2018-10-05T01:26:01.922Z,18.73
2018-10-05T01:28:30.529Z,18.60
2018-10-05T01:30:59.160Z,20.37
2018-10-05T01:33:28.036Z,19.85
2018-10-05T01:35:56.708Z,21.73
2018-10-05T01:38:25.360Z,16.32
2018-10-05T01:40:54.028Z,24.63
2018-10-05T01:43:22.912Z,22.25
2018-10-05T01:45:51.450Z,14.43
2018-10-05T01:48:19.953Z,17.82
2018-10-05T01:50:48.584Z,18.05
2018-10-05T01:53:17.356Z,22.17
2018-10-05T01:55:45.864Z,19.55
2018-10-05T01:58:14.388Z,21.40
2018-10-05T02:00:42.912Z,20.35
2018-10-05T02:03:11.547Z,17.45
2018-10-05T02:05:40.053Z,16.95
2018-10-05T02:08:08.632Z,21.20
2018-10-05T02:10:37.472Z,22.98
2018-10-05T02:13:06.044Z,19.57
2018-10-05T02:15:35.076Z,20.08
2018-10-05T02:18:03.740Z,21.10
2018-10-05T02:20:32.292Z,18.73
2018-10-05T02:23:01.080Z,19.05
2018-10-05T02:25:29.696Z,19.95
2018-10-05T02:27:58.704Z,15.60
2018-10-05T02:30:27.632Z,16.12
2018-10-05T02:32:56.213Z,20.10
2018-10-05T02:35:24.744Z,17.67
2018-10-05T02:37:53.267Z,14.38
2018-10-05T02:40:21.836Z,17.45
2018-10-05T02:42:50.628Z,13.60
2018-10-05T02:45:19.171Z,18.82
2018-10-05T02:47:47.692Z,17.07
2018-10-05T02:50:16.515Z,20.57
2018-10-05T02:52:45.092Z,15.30
2018-10-05T02:55:13.708Z,20.17
2018-10-05T02:57:42.288Z,15.58
2018-10-05T03:00:21.963Z,16.87
2018-10-05T03:02:50.815Z,21.37
2018-10-05T03:05:19.427Z,16.05
2018-10-05T03:07:48.211Z,18.25
2018-10-05T03:10:17.019Z,22.42
2018-10-05T03:12:45.534Z,14.98
2018-10-05T03:15:14.071Z,17.92
2018-10-05T03:17:43.297Z,18.23
2018-10-05T03:20:12.231Z,18.37
2018-10-05T03:24:10.514Z,20.57
2018-10-05T03:26:39.067Z,17.10
2018-10-05T03:29:07.623Z,19.75
2018-10-05T03:31:36.571Z,19.75
2018-10-05T03:34:05.451Z,16.30
2018-10-05T03:36:34.074Z,16.40
2018-10-05T03:39:02.658Z,20.12
2018-10-05T03:41:31.189Z,15.00
2018-10-05T03:43:59.697Z,19.35
2018-10-05T03:46:28.289Z,14.73
2018-10-05T03:48:57.464Z,22.20
2018-10-05T03:51:26.086Z,18.55
2018-10-05T03:53:54.597Z,20.08
2018-10-05T03:56:23.153Z,17.87
2018-10-05T03:58:51.954Z,18.20
2018-10-05T04:01:20.869Z,18.62
2018-10-05T04:03:49.437Z,16.37
2018-10-05T04:06:18.788Z,19.42
2018-10-05T04:08:47.328Z,16.15
2018-10-05T04:11:16.092Z,23.25
2018-10-05T04:13:44.616Z,18.00
2018-10-05T04:16:13.238Z,18.25
2018-10-05T04:18:41.813Z,17.57
2018-10-05T04:21:10.421Z,23.98
2018-10-05T04:23:39.285Z,15.75
2018-10-05T04:26:07.909Z,18.73
2018-10-05T04:28:36.564Z,17.75
2018-10-05T04:31:05.221Z,17.15
2018-10-05T04:33:33.897Z,15.03
2018-10-05T04:36:02.464Z,19.70
2018-10-05T04:38:30.937Z,21.62
2018-10-05T04:40:59.458Z,17.48
2018-10-05T04:43:27.957Z,13.70
2018-10-05T04:45:56.544Z,14.73
2018-10-05T04:48:25.157Z,21.33
2018-10-05T04:50:53.741Z,22.05
2018-10-05T04:53:22.698Z,20.15
2018-10-05T04:55:51.245Z,21.05
2018-10-05T04:58:19.885Z,19.48
2018-10-05T05:00:48.555Z,16.23
2018-10-05T05:03:17.041Z,16.82
2018-10-05T05:05:45.561Z,17.05
2018-10-05T05:08:14.065Z,16.90
2018-10-05T05:10:42.944Z,18.20
2018-10-05T05:13:11.421Z,17.98
2018-10-05T05:15:39.933Z,17.98
2018-10-05T05:18:08.653Z,15.08
2018-10-05T05:20:37.605Z,20.32
2018-10-05T05:23:07.113Z,18.25
2018-10-05T05:25:35.736Z,20.62
2018-10-05T05:28:05.067Z,21.48
2018-10-05T05:30:33.703Z,20.12
2018-10-05T05:33:02.263Z,16.30
2018-10-05T05:35:30.799Z,21.00
2018-10-05T05:37:59.352Z,20.08
2018-10-05T05:40:27.907Z,17.95
2018-10-05T05:42:56.464Z,19.52
2018-10-05T05:45:24.993Z,14.65
2018-10-05T05:47:53.991Z,15.45
2018-10-05T05:50:22.583Z,16.93
2018-10-05T05:52:51.179Z,16.73
2018-10-05T05:55:19.745Z,16.02
2018-10-05T05:57:48.311Z,19.70
2018-10-05T06:00:16.867Z,20.95
2018-10-05T06:02:45.603Z,17.55
2018-10-05T06:05:14.122Z,15.48
2018-10-05T06:07:42.815Z,18.67
2018-10-05T06:10:11.933Z,16.57
2018-10-05T06:12:40.451Z,13.65
2018-10-05T06:15:09.023Z,16.40
2018-10-05T06:17:37.551Z,19.70
2018-10-05T06:20:07.103Z,19.87
2018-10-05T06:22:35.616Z,16.15
2018-10-05T06:25:04.168Z,19.23
2018-10-05T06:27:33.131Z,20.27
2018-10-05T06:30:01.584Z,17.87
2018-10-05T06:32:30.118Z,17.85
2018-10-05T06:34:58.619Z,16.70
2018-10-05T06:37:28.287Z,18.42
2018-10-05T06:39:57.059Z,20.10
2018-10-05T06:42:25.777Z,19.62
2018-10-05T06:44:54.203Z,19.40
2018-10-05T06:47:22.753Z,22.73
2018-10-05T06:49:51.271Z,21.57
2018-10-05T06:52:19.787Z,16.23
2018-10-05T06:54:48.803Z,19.07
2018-10-05T06:57:17.543Z,18.37
2018-10-05T06:59:46.095Z,15.03
2018-10-05T07:02:15.676Z,19.87
2018-10-05T07:04:44.192Z,21.00
2018-10-05T07:07:12.838Z,18.95
2018-10-05T07:09:41.355Z,22.90
2018-10-05T07:12:09.875Z,15.65
2018-10-05T07:14:38.374Z,18.23
2018-10-05T07:17:06.907Z,17.35
2018-10-05T07:19:35.466Z,13.62
2018-10-05T07:22:05.215Z,20.77
2018-10-05T07:24:33.906Z,19.60
2018-10-05T07:27:02.458Z,19.57
2018-10-05T07:29:30.998Z,18.55
2018-10-05T07:31:59.514Z,19.10
2018-10-05T07:34:29.022Z,15.83
2018-10-05T07:36:58.108Z,17.60
2018-10-05T07:39:26.618Z,17.12
2018-10-05T07:41:55.462Z,17.23
2018-10-05T07:44:24.093Z,16.52
2018-10-05T07:46:52.649Z,22.15
2018-10-05T07:49:21.245Z,16.25
2018-10-05T07:51:49.901Z,24.95
2018-10-05T07:54:18.705Z,17.35
2018-10-05T07:56:47.209Z,19.45
2018-10-05T07:59:16.006Z,14.80
2018-10-05T08:01:44.517Z,18.05
2018-10-05T08:04:13.126Z,20.75
2018-10-05T08:06:41.722Z,20.40
2018-10-05T08:09:10.262Z,19.42
2018-10-05T08:11:38.886Z,17.23
2018-10-05T08:14:07.417Z,20.65
2018-10-05T08:16:35.930Z,18.17
2018-10-05T08:19:04.495Z,21.30
2018-10-05T08:21:33.125Z,17.05
2018-10-05T08:24:01.710Z,18.85
2018-10-05T08:26:30.226Z,19.95
2018-10-05T08:28:58.813Z,18.07
2018-10-05T08:31:27.373Z,20.95
2018-10-05T08:33:55.935Z,20.25
2018-10-05T08:36:24.565Z,15.83
2018-10-05T08:38:53.189Z,18.65
2018-10-05T08:41:21.721Z,15.30
2018-10-05T08:43:50.237Z,17.90
2018-10-05T08:46:19.258Z,27.98
2018-10-05T08:48:48.090Z,24.35
2018-10-05T08:51:17.069Z,15.90
2018-10-05T08:53:45.877Z,21.25
2018-10-05T08:56:14.457Z,22.20
2018-10-05T08:58:42.970Z,18.48
2018-10-05T09:01:11.465Z,19.07
2018-10-05T09:03:40.329Z,20.90
2018-10-05T09:06:08.813Z,18.73
2018-10-05T09:08:37.602Z,19.37
2018-10-05T09:11:06.262Z,16.35
2018-10-05T09:13:35.101Z,19.35
2018-10-05T09:16:04.357Z,18.60
2018-10-05T09:18:32.873Z,18.00
2018-10-05T09:21:01.565Z,19.48
2018-10-05T09:23:30.377Z,20.55
2018-10-05T09:25:58.963Z,18.65
2018-10-05T09:28:28.101Z,16.07
2018-10-05T09:30:56.641Z,19.32
2018-10-05T09:33:25.341Z,18.75
2018-10-05T09:35:53.865Z,17.77
2018-10-05T09:38:22.413Z,15.78
2018-10-05T09:40:50.941Z,21.75
2018-10-05T09:43:19.581Z,15.23
2018-10-05T09:45:48.213Z,19.48
2018-10-05T09:48:16.853Z,21.82
2018-10-05T09:50:45.494Z,19.75
2018-10-05T09:53:14.095Z,23.02
2018-10-05T09:55:42.953Z,16.90
2018-10-05T09:58:11.473Z,18.23
2018-10-05T10:00:45.253Z,17.70
2018-10-05T10:03:19.001Z,22.22
2018-10-05T10:05:47.521Z,21.27
2018-10-05T10:08:16.104Z,22.27
2018-10-05T10:10:45.001Z,15.98
2018-10-05T10:13:13.856Z,18.32
2018-10-05T10:15:42.369Z,16.00
2018-10-05T10:18:11.049Z,22.35
2018-10-05T10:20:39.693Z,19.70
2018-10-05T10:23:08.601Z,15.18
2018-10-05T10:25:37.596Z,15.48
2018-10-05T10:28:06.377Z,16.42
2018-10-05T10:30:34.833Z,15.68
2018-10-05T10:33:03.353Z,18.80
2018-10-05T10:35:32.136Z,18.05
2018-10-05T10:38:00.653Z,13.88
2018-10-05T10:40:29.569Z,15.25
2018-10-05T10:42:58.197Z,13.15
2018-10-05T10:45:26.757Z,17.70
2018-10-05T10:47:55.268Z,17.25
2018-10-05T10:50:23.941Z,16.00
2018-10-05T10:52:52.660Z,18.57
2018-10-05T10:55:21.173Z,14.70
2018-10-05T10:57:49.669Z,17.90
2018-10-05T11:00:18.493Z,15.00
2018-10-05T11:02:47.014Z,17.62
2018-10-05T11:05:15.613Z,12.82
2018-10-05T11:07:44.121Z,15.08
2018-10-05T11:10:12.652Z,16.90
2018-10-05T11:12:41.737Z,13.45
2018-10-05T11:15:10.417Z,14.47
2018-10-05T11:17:38.959Z,18.45
2018-10-05T11:20:07.560Z,16.57
2018-10-05T11:22:36.058Z,17.30
2018-10-05T11:25:04.641Z,19.20
2018-10-05T11:27:33.164Z,16.30
2018-10-05T11:30:01.801Z,17.82
2018-10-05T11:32:30.613Z,13.32
2018-10-05T11:34:59.532Z,14.65
2018-10-05T11:37:28.097Z,15.15
2018-10-05T11:39:56.745Z,13.03
2018-10-05T11:42:25.580Z,11.30
2018-10-05T11:44:54.657Z,14.05
2018-10-05T11:47:23.285Z,13.03
2018-10-05T11:49:51.808Z,15.20
2018-10-05T11:52:20.384Z,12.00
2018-10-05T11:54:49.169Z,12.88
2018-10-05T11:57:17.697Z,12.93
2018-10-05T11:59:46.658Z,12.05
2018-10-05T12:02:15.860Z,11.73
2018-10-05T12:04:44.373Z,14.20
2018-10-05T12:07:12.900Z,11.00
2018-10-05T12:09:41.804Z,15.85
2018-10-05T12:12:10.321Z,18.00
2018-10-05T12:14:38.821Z,12.80
2018-10-05T12:17:07.450Z,13.80
2018-10-05T12:19:36.001Z,11.38
2018-10-05T12:22:04.480Z,9.98
2018-10-05T12:24:33.045Z,10.60
2018-10-05T12:27:01.537Z,12.23
2018-10-05T12:29:32.176Z,10.82
2018-10-05T12:32:00.680Z,12.43
2018-10-05T12:34:29.511Z,10.30
2018-10-05T12:36:58.724Z,12.65
2018-10-05T12:39:27.580Z,15.30
2018-10-05T12:41:56.508Z,12.68
2018-10-05T12:44:25.049Z,14.58
2018-10-05T12:46:53.590Z,14.80
2018-10-05T12:49:22.100Z,10.23
2018-10-05T12:51:50.783Z,11.28
2018-10-05T12:54:19.299Z,14.65
2018-10-05T12:56:48.040Z,13.10
2018-10-05T12:59:16.620Z,19.55
2018-10-05T13:01:45.104Z,20.48
2018-10-05T13:04:13.640Z,21.75
2018-10-05T13:06:42.268Z,18.60
2018-10-05T13:09:10.827Z,10.75
2018-10-05T13:11:39.631Z,10.58
2018-10-05T13:14:08.288Z,15.13
2018-10-05T13:16:36.960Z,14.65
2018-10-05T13:19:05.440Z,14.10
2018-10-05T13:21:34.434Z,11.68
2018-10-05T13:24:04.020Z,15.05
2018-10-05T13:26:32.556Z,11.20
2018-10-05T13:29:01.054Z,10.78
2018-10-05T13:31:29.544Z,12.63
2018-10-05T13:33:58.473Z,12.03
2018-10-05T13:36:27.065Z,8.93
2018-10-05T13:38:55.587Z,8.68
2018-10-05T13:41:24.111Z,9.70
2018-10-05T13:43:53.035Z,12.10
2018-10-05T13:46:21.659Z,11.18
2018-10-05T13:48:50.525Z,10.50
2018-10-05T13:51:19.051Z,12.50
2018-10-05T13:53:47.551Z,10.95
2018-10-05T13:56:16.107Z,10.65
2018-10-05T13:58:45.077Z,9.10
2018-10-05T14:01:13.878Z,9.23
2018-10-05T14:03:42.676Z,11.65
2018-10-05T14:06:11.384Z,12.23
2018-10-05T14:08:40.673Z,7.47
2018-10-05T14:11:09.785Z,8.65
2018-10-05T14:15:56.169Z,7.95
2018-10-05T14:18:24.781Z,10.10
2018-10-05T14:20:53.697Z,8.25
2018-10-05T14:23:22.406Z,12.07
2018-10-05T14:25:51.389Z,9.95
2018-10-05T14:28:20.274Z,10.05
2018-10-05T14:30:49.545Z,10.82
2018-10-05T14:33:18.341Z,9.10
2018-10-05T14:35:46.997Z,7.20
2018-10-05T14:38:15.863Z,7.05
2018-10-05T14:40:44.561Z,9.88
2018-10-05T14:43:13.049Z,9.67
2018-10-05T14:45:42.356Z,10.63
2018-10-05T14:49:13.580Z,9.93
2018-10-05T14:51:42.015Z,10.32
2018-10-05T14:54:11.328Z,8.43
2018-10-05T14:56:39.847Z,9.88
2018-10-05T14:59:08.784Z,11.38
2018-10-05T15:01:37.603Z,11.30
2018-10-05T15:04:06.476Z,15.03
2018-10-05T15:06:35.292Z,14.30
2018-10-05T15:09:05.391Z,15.12
2018-10-05T15:11:34.776Z,8.53
2018-10-05T15:14:03.745Z,11.68
2018-10-05T15:16:32.619Z,11.03
2018-10-05T15:19:21.123Z,9.20
2018-10-05T15:21:54.624Z,9.95
2018-10-05T15:24:24.549Z,11.10
2018-10-05T15:26:53.595Z,11.00
2018-10-05T15:29:22.663Z,7.53
2018-10-05T15:31:51.707Z,7.97
2018-10-05T15:34:20.731Z,12.67
2018-10-05T15:36:49.704Z,12.80
2018-10-05T15:39:18.480Z,13.28
2018-10-05T15:41:47.276Z,12.73
2018-10-05T15:44:16.108Z,12.53
2018-10-05T15:47:01.464Z,11.73
2018-10-05T15:49:30.984Z,11.55
2018-10-05T15:52:00.077Z,10.90
2018-10-05T15:54:28.896Z,10.65
2018-10-05T15:56:57.656Z,11.48
2018-10-05T15:59:26.956Z,11.35
2018-10-05T16:01:55.819Z,11.00
2018-10-05T16:04:24.491Z,16.20
2018-10-05T16:06:53.278Z,10.50
2018-10-05T16:09:21.908Z,7.93
2018-10-05T16:11:50.598Z,8.80
2018-10-05T16:14:19.566Z,8.48
2018-10-05T16:16:48.446Z,8.03
2018-10-05T16:19:17.186Z,8.13
2018-10-05T16:21:51.539Z,8.48
2018-10-05T16:29:55.842Z,16.57
2018-10-05T16:37:36.587Z,13.83
2018-10-05T16:40:06.522Z,16.10
2018-10-05T16:42:35.439Z,18.10
2018-10-05T16:45:10.711Z,17.00
2018-10-05T16:47:39.787Z,16.60
2018-10-05T16:50:08.835Z,20.27
2018-10-05T17:06:35.430Z,14.58
2018-10-05T17:09:08.266Z,15.42
2018-10-05T17:11:38.722Z,13.15
2018-10-05T17:19:07.043Z,20.00
2018-10-05T17:22:31.942Z,21.87
2018-10-05T17:25:21.710Z,41.40
2018-10-05T17:27:54.506Z,50.90
2018-10-05T17:33:35.546Z,33.23
2018-10-05T17:41:08.879Z,25.05
2018-10-05T17:43:38.181Z,19.57
2018-10-05T17:46:07.087Z,13.83
2018-10-05T17:48:36.442Z,14.93
2018-10-05T17:51:07.350Z,16.15
2018-10-05T17:56:21.588Z,13.43
2018-10-05T18:01:59.316Z,13.30
2018-10-05T18:04:35.589Z,13.28
2018-10-05T18:07:05.366Z,12.65
2018-10-05T18:10:05.082Z,14.03
2018-10-05T18:12:34.158Z,11.38
2018-10-05T18:15:03.158Z,15.43
2018-10-05T18:17:31.982Z,12.55
2018-10-05T18:20:00.769Z,13.22
2018-10-05T18:22:29.701Z,13.50
2018-10-05T18:24:58.609Z,12.73
2018-10-05T18:27:27.609Z,13.88
2018-10-05T18:29:56.673Z,11.65
2018-10-05T18:32:25.510Z,13.45
2018-10-05T18:34:54.305Z,16.57
2018-10-05T18:37:27.669Z,14.33
2018-10-05T18:39:56.485Z,15.95
2018-10-05T18:42:25.363Z,14.40
2018-10-05T18:44:54.394Z,12.68
2018-10-05T18:47:23.477Z,12.85
2018-10-05T18:49:52.197Z,14.20
2018-10-05T18:52:20.933Z,14.93
2018-10-05T18:54:49.911Z,16.73
2018-10-05T18:57:22.167Z,15.50
2018-10-05T19:13:03.311Z,13.20
2018-10-05T19:15:31.921Z,21.93
2018-10-05T19:18:00.635Z,16.42
2018-10-05T19:20:29.424Z,18.90
2018-10-05T19:22:57.937Z,22.32
2018-10-05T19:25:26.500Z,16.93
2018-10-05T19:27:55.053Z,22.93
2018-10-05T19:30:23.501Z,18.45
2018-10-05T19:33:06.329Z,23.18
2018-10-05T19:35:34.919Z,17.87
2018-10-05T19:38:03.454Z,18.98
2018-10-05T19:40:32.209Z,21.50
2018-10-05T19:43:01.313Z,19.63
2018-10-05T19:45:29.833Z,22.58
2018-10-05T19:47:58.333Z,18.15
2018-10-05T19:50:26.992Z,18.98
2018-10-05T19:52:55.744Z,14.03
2018-10-05T19:55:24.441Z,15.48
2018-10-05T19:57:53.197Z,18.50
2018-10-05T20:00:22.272Z,18.05
2018-10-05T20:02:51.412Z,20.88
2018-10-05T20:05:19.857Z,23.77
2018-10-05T20:07:48.317Z,19.65
2018-10-05T20:10:16.780Z,28.60
2018-10-05T20:12:45.229Z,26.65
2018-10-05T20:15:14.932Z,23.77
2018-10-05T20:17:49.841Z,20.82
2018-10-05T20:20:18.665Z,23.77
2018-10-05T20:22:47.937Z,23.22
2018-10-05T20:25:16.502Z,17.92
2018-10-05T20:27:45.437Z,23.30
2018-10-05T20:30:14.785Z,16.40
2018-10-05T20:32:43.332Z,16.35
2018-10-05T20:35:11.877Z,17.52
2018-10-05T20:37:40.577Z,18.17
2018-10-05T20:40:08.860Z,19.10
2018-10-05T20:42:37.785Z,17.67
2018-10-05T20:45:06.541Z,16.77
2018-10-05T20:47:35.116Z,20.23
2018-10-05T20:50:03.672Z,20.75
2018-10-05T20:52:32.160Z,25.30
2018-10-05T20:55:00.621Z,20.05
2018-10-05T20:57:29.517Z,22.13
2018-10-05T20:59:58.198Z,23.90
2018-10-05T21:02:26.725Z,25.35
2018-10-05T21:04:55.228Z,23.45
2018-10-05T21:07:23.720Z,25.77
2018-10-05T21:09:52.954Z,21.30
2018-10-05T21:12:21.808Z,22.65
2018-10-05T21:14:50.656Z,23.45
2018-10-05T21:17:23.320Z,23.57
2018-10-05T21:20:03.034Z,20.32
2018-10-05T21:22:38.096Z,18.73
2018-10-05T21:25:06.832Z,25.15
2018-10-05T21:27:35.416Z,20.97
2018-10-05T21:30:03.952Z,23.90
2018-10-05T21:32:32.392Z,24.43
2018-10-05T21:35:01.737Z,19.30
2018-10-05T21:37:30.253Z,18.42
2018-10-05T21:39:58.812Z,21.02
2018-10-05T21:42:28.409Z,18.37
2018-10-05T21:44:57.644Z,18.45
2018-10-05T21:47:26.125Z,17.27
2018-10-05T21:49:54.581Z,18.82
2018-10-05T21:52:23.070Z,16.50
2018-10-05T21:54:51.484Z,17.42
2018-10-05T21:57:20.657Z,15.77
2018-10-05T21:59:49.149Z,15.38
2018-10-05T22:02:17.664Z,22.07
2018-10-05T22:04:46.124Z,16.45
2018-10-05T22:07:14.589Z,17.02
2018-10-05T22:09:43.158Z,16.57
2018-10-05T22:12:11.896Z,17.10
2018-10-05T22:14:40.356Z,17.52
2018-10-05T22:17:09.164Z,15.88
2018-10-05T22:19:37.730Z,15.93
2018-10-05T22:22:06.094Z,15.65
2018-10-05T22:24:34.569Z,18.62
2018-10-05T22:27:03.040Z,19.90
2018-10-05T22:29:31.619Z,17.02
2018-10-05T22:32:00.088Z,16.50
2018-10-05T22:34:28.547Z,16.30
2018-10-05T22:36:56.991Z,17.12
2018-10-05T22:39:25.699Z,19.70
2018-10-05T22:41:54.942Z,16.77
2018-10-05T22:44:23.431Z,17.25
2018-10-05T22:46:51.920Z,16.32
2018-10-05T22:49:20.408Z,17.10
2018-10-05T22:51:48.871Z,18.25
2018-10-05T22:54:17.399Z,18.25
2018-10-05T22:56:46.196Z,20.08
2018-10-05T22:59:14.780Z,19.90
2018-10-05T23:01:43.653Z,16.23
2018-10-05T23:04:12.415Z,20.02
2018-10-05T23:06:40.939Z,15.32
2018-10-05T23:09:10.155Z,18.77
2018-10-05T23:11:38.619Z,19.10
2018-10-05T23:14:07.671Z,16.93
2018-10-05T23:17:06.699Z,15.15
2018-10-05T23:19:35.239Z,14.68
2018-10-05T23:22:04.235Z,18.00
2018-10-05T23:24:32.729Z,17.77
2018-10-05T23:27:01.231Z,19.57
2018-10-05T23:29:29.679Z,17.62
2018-10-05T23:31:58.147Z,15.38
2018-10-05T23:34:26.603Z,15.45
2018-10-05T23:36:55.081Z,17.70
2018-10-05T23:39:23.554Z,19.17
2018-10-05T23:41:52.003Z,17.75
2018-10-05T23:44:20.438Z,14.87
2018-10-05T23:46:48.979Z,17.50
2018-10-05T23:49:17.742Z,19.17
2018-10-05T23:51:46.322Z,20.40
2018-10-05T23:54:14.818Z,19.03
2018-10-05T23:56:43.528Z,17.92
2018-10-05T23:59:11.993Z,16.45
